Time;durP1;ratioP1;P1;durP2;ratioP2;P2;SDS_P1;SDS_P2;PMS_P1;PMS_P2;Temp;Humidity;BMP_temperature;BMP_pressure;BME280_temperature;BME280_humidity;BME280_pressure;Samples;Min_cycle;Max_cycle;Signal;HPM_P1;HPM_P2
2023/09/04 00:01:23;;;;;;;486.20;113.87;;;;;;;;;;4926932;28;20676;-55
2023/09/04 00:03:48;;;;;;;412.23;115.20;;;;;;;;;;4928645;28;20278;-57
2023/09/04 00:06:14;;;;;;;356.77;101.10;;;;;;;;;;4929090;28;20837;-56
2023/09/04 00:08:39;;;;;;;539.42;110.13;;;;;;;;;;4927085;28;20421;-55
2023/09/04 00:11:04;;;;;;;422.33;97.25;;;;;;;;;;4932321;28;20297;-55
2023/09/04 00:13:29;;;;;;;528.63;102.40;;;;;;;;;;4926835;28;20435;-54
2023/09/04 00:15:56;;;;;;;384.15;97.45;;;;;;;;;;4928041;28;20347;-56
2023/09/04 00:18:22;;;;;;;417.60;102.05;;;;;;;;;;4926218;28;20638;-55
2023/09/04 00:20:48;;;;;;;375.58;104.68;;;;;;;;;;4926638;28;20039;-57
2023/09/04 00:23:13;;;;;;;432.45;108.07;;;;;;;;;;4930016;28;20038;-56
2023/09/04 00:25:38;;;;;;;567.35;117.32;;;;;;;;;;4926486;28;20035;-58
2023/09/04 00:28:04;;;;;;;428.77;113.40;;;;;;;;;;4928048;28;20043;-57
2023/09/04 00:30:29;;;;;;;508.10;114.22;;;;;;;;;;4927394;28;20103;-58
2023/09/04 00:32:54;;;;;;;452.50;115.63;;;;;;;;;;4927959;28;20074;-56
2023/09/04 00:35:20;;;;;;;446.48;117.53;;;;;;;;;;4926707;28;20394;-58
2023/09/04 00:37:45;;;;;;;436.13;111.10;;;;;;;;;;4927020;28;20217;-57
2023/09/04 00:40:10;;;;;;;424.50;117.80;;;;;;;;;;4926550;28;20236;-57
2023/09/04 00:42:36;;;;;;;564.92;125.25;;;;;;;;;;4927749;28;20770;-55
2023/09/04 00:45:01;;;;;;;472.63;124.63;;;;;;;;;;4928149;28;20280;-56
2023/09/04 00:47:27;;;;;;;540.83;115.28;;;;;;;;;;4928984;28;20279;-56
2023/09/04 00:49:54;;;;;;;445.92;108.45;;;;;;;;;;4927010;28;20058;-55
2023/09/04 00:52:20;;;;;;;395.25;95.30;;;;;;;;;;4927351;28;20032;-58
2023/09/04 00:54:46;;;;;;;403.77;97.65;;;;;;;;;;4928945;28;20023;-55
2023/09/04 00:57:12;;;;;;;351.58;95.95;;;;;;;;;;4928889;28;20455;-58
2023/09/04 00:59:37;;;;;;;497.65;109.70;;;;;;;;;;4926983;28;20039;-56
2023/09/04 01:02:04;;;;;;;467.40;104.85;;;;;;;;;;4924216;28;20031;-58
2023/09/04 01:04:30;;;;;;;504.73;116.20;;;;;;;;;;4926446;28;20042;-57
2023/09/04 01:06:55;;;;;;;431.90;94.25;;;;;;;;;;4928068;28;20039;-55
2023/09/04 01:09:21;;;;;;;414.10;90.73;;;;;;;;;;4926865;28;20494;-55
2023/09/04 01:11:56;;;;;;;357.55;91.35;;;;;;;;;;4925895;28;20809;-55
2023/09/04 01:14:23;;;;;;;448.30;101.22;;;;;;;;;;4927939;28;20028;-55
2023/09/04 01:16:49;;;;;;;359.80;87.90;;;;;;;;;;4926002;28;20035;-57
2023/09/04 01:19:17;;;;;;;404.92;103.30;;;;;;;;;;4928166;28;20038;-57
2023/09/04 01:21:42;;;;;;;608.50;117.63;;;;;;;;;;4925066;28;20438;-55
2023/09/04 01:24:09;;;;;;;434.00;115.97;;;;;;;;;;4927254;28;20111;-55
2023/09/04 01:26:40;;;;;;;546.25;118.55;;;;;;;;;;4925569;28;20279;-55
2023/09/04 01:29:05;;;;;;;407.17;104.93;;;;;;;;;;4927149;28;20453;-56
2023/09/04 01:31:30;;;;;;;545.65;110.60;;;;;;;;;;4927158;28;20040;-58
2023/09/04 01:33:59;;;;;;;401.10;104.65;;;;;;;;;;4928615;28;20114;-56
2023/09/04 01:36:26;;;;;;;427.50;99.60;;;;;;;;;;4926755;28;20035;-55
2023/09/04 01:38:52;;;;;;;365.50;97.75;;;;;;;;;;4925697;28;20309;-56
2023/09/04 01:41:18;;;;;;;377.55;97.78;;;;;;;;;;4926125;28;20168;-55
2023/09/04 01:43:43;;;;;;;471.25;105.80;;;;;;;;;;4925249;28;20619;-56
2023/09/04 01:46:08;;;;;;;370.53;94.40;;;;;;;;;;4926881;28;20043;-58
2023/09/04 01:48:34;;;;;;;495.45;98.78;;;;;;;;;;4925983;28;20671;-58
2023/09/04 01:51:00;;;;;;;422.38;99.88;;;;;;;;;;4925437;28;20036;-56
2023/09/04 01:53:25;;;;;;;391.55;103.80;;;;;;;;;;4926111;28;20027;-58
2023/09/04 01:55:50;;;;;;;398.58;107.90;;;;;;;;;;4924313;28;20561;-58
2023/09/04 01:58:15;;;;;;;410.45;109.55;;;;;;;;;;4927121;28;20139;-56
2023/09/04 02:00:41;;;;;;;480.27;116.80;;;;;;;;;;4924358;28;20047;-57
2023/09/04 02:03:06;;;;;;;422.38;115.13;;;;;;;;;;4925595;28;20781;-55
2023/09/04 02:05:31;;;;;;;590.03;125.00;;;;;;;;;;4924982;28;20123;-58
2023/09/04 02:07:56;;;;;;;433.40;122.43;;;;;;;;;;4926674;28;20290;-56
2023/09/04 02:10:23;;;;;;;445.95;128.25;;;;;;;;;;4925578;28;20274;-55
2023/09/04 02:12:49;;;;;;;458.67;128.25;;;;;;;;;;4930964;28;20086;-56
2023/09/04 02:15:14;;;;;;;389.50;105.17;;;;;;;;;;4925502;28;20311;-56
2023/09/04 02:17:39;;;;;;;525.80;115.77;;;;;;;;;;4924883;28;20251;-55
2023/09/04 02:20:05;;;;;;;465.15;96.00;;;;;;;;;;4924202;28;20330;-55
2023/09/04 02:22:30;;;;;;;404.23;106.63;;;;;;;;;;4924244;28;20242;-55
2023/09/04 02:24:55;;;;;;;415.27;110.87;;;;;;;;;;4923706;28;20335;-55
2023/09/04 02:27:20;;;;;;;477.38;122.30;;;;;;;;;;4925104;28;20868;-57
2023/09/04 02:29:46;;;;;;;545.47;128.32;;;;;;;;;;4925070;28;20066;-54
2023/09/04 02:32:11;;;;;;;414.27;121.25;;;;;;;;;;4925091;28;20071;-55
2023/09/04 02:34:36;;;;;;;617.28;134.82;;;;;;;;;;4924807;28;20253;-55
2023/09/04 02:37:02;;;;;;;420.83;107.57;;;;;;;;;;4924841;28;20143;-57
2023/09/04 02:39:27;;;;;;;393.55;102.68;;;;;;;;;;4926375;28;20028;-57
2023/09/04 02:41:52;;;;;;;478.60;112.67;;;;;;;;;;4924328;28;20043;-56
2023/09/04 02:44:17;;;;;;;405.02;118.32;;;;;;;;;;4925046;28;20279;-57
2023/09/04 02:46:43;;;;;;;582.28;132.50;;;;;;;;;;4924703;28;20529;-55
2023/09/04 02:49:08;;;;;;;438.08;117.88;;;;;;;;;;4924947;28;20024;-58
2023/09/04 02:51:33;;;;;;;511.83;120.83;;;;;;;;;;4924690;28;20039;-56
2023/09/04 02:53:58;;;;;;;428.05;121.88;;;;;;;;;;4925331;28;20709;-57
2023/09/04 02:56:24;;;;;;;444.73;125.32;;;;;;;;;;4924511;28;20565;-56
2023/09/04 02:58:49;;;;;;;418.08;111.20;;;;;;;;;;4927822;28;21700;-55
2023/09/04 03:01:16;;;;;;;383.93;102.10;;;;;;;;;;4927739;28;20289;-57
2023/09/04 03:03:41;;;;;;;477.15;111.97;;;;;;;;;;4925669;28;20278;-55
2023/09/04 03:06:07;;;;;;;412.50;115.55;;;;;;;;;;4926524;28;20918;-54
2023/09/04 03:08:32;;;;;;;444.98;112.45;;;;;;;;;;4922842;28;20035;-55
2023/09/04 03:10:57;;;;;;;415.87;108.67;;;;;;;;;;4925430;28;20036;-53
2023/09/04 03:13:22;;;;;;;415.30;102.40;;;;;;;;;;4926691;28;20286;-54
2023/09/04 03:15:48;;;;;;;513.97;115.70;;;;;;;;;;4924413;28;20042;-55
2023/09/04 03:18:13;;;;;;;381.50;105.70;;;;;;;;;;4925370;28;20266;-54
2023/09/04 03:20:38;;;;;;;542.87;119.43;;;;;;;;;;4923106;28;20036;-55
2023/09/04 03:23:03;;;;;;;430.33;118.30;;;;;;;;;;4926826;28;20279;-55
2023/09/04 03:25:29;;;;;;;425.53;121.40;;;;;;;;;;4925465;28;20279;-55
2023/09/04 03:27:54;;;;;;;464.42;123.20;;;;;;;;;;4925698;28;20633;-55
2023/09/04 03:30:19;;;;;;;446.27;124.27;;;;;;;;;;4928697;28;20023;-55
2023/09/04 03:32:45;;;;;;;501.55;131.00;;;;;;;;;;4927093;28;20268;-56
2023/09/04 03:35:10;;;;;;;480.70;130.35;;;;;;;;;;4929992;28;20022;-54
2023/09/04 03:37:36;;;;;;;454.23;116.68;;;;;;;;;;4929960;28;20039;-54
2023/09/04 03:40:17;;;;;;;467.85;116.47;;;;;;;;;;4928313;28;20031;-54
2023/09/04 03:42:43;;;;;;;539.37;123.10;;;;;;;;;;4928494;28;20047;-57
2023/09/04 03:45:08;;;;;;;397.27;107.87;;;;;;;;;;4927891;28;20038;-55
2023/09/04 03:47:33;;;;;;;482.45;116.95;;;;;;;;;;4927029;28;20856;-55
2023/09/04 03:49:58;;;;;;;469.23;125.00;;;;;;;;;;4929913;28;20027;-55
2023/09/04 03:52:24;;;;;;;431.08;113.60;;;;;;;;;;4935391;28;20278;-56
2023/09/04 03:54:49;;;;;;;477.92;114.32;;;;;;;;;;4927367;28;20585;-62
2023/09/04 03:57:14;;;;;;;438.90;124.43;;;;;;;;;;4928626;28;20142;-57
2023/09/04 03:59:40;;;;;;;509.77;129.18;;;;;;;;;;4927518;28;20264;-56
2023/09/04 04:02:05;;;;;;;480.40;129.17;;;;;;;;;;4928209;28;20043;-57
2023/09/04 04:04:30;;;;;;;455.20;128.70;;;;;;;;;;4928945;28;20327;-56
2023/09/04 04:06:55;;;;;;;458.05;135.27;;;;;;;;;;4925889;28;20267;-58
2023/09/04 04:09:21;;;;;;;489.33;137.70;;;;;;;;;;4928189;28;20275;-57
2023/09/04 04:11:46;;;;;;;515.47;133.98;;;;;;;;;;4928419;28;20350;-55
2023/09/04 04:14:12;;;;;;;431.95;132.35;;;;;;;;;;4927817;28;20090;-56
2023/09/04 04:16:37;;;;;;;547.63;139.40;;;;;;;;;;4925651;28;20035;-57
2023/09/04 04:19:02;;;;;;;450.65;130.15;;;;;;;;;;4928936;28;20726;-55
2023/09/04 04:21:27;;;;;;;438.80;130.23;;;;;;;;;;4928430;28;20109;-55
2023/09/04 04:23:53;;;;;;;621.03;132.37;;;;;;;;;;4927841;28;20386;-56
2023/09/04 04:26:18;;;;;;;441.45;130.35;;;;;;;;;;4928540;28;20674;-56
2023/09/04 04:28:43;;;;;;;540.03;134.32;;;;;;;;;;4926212;28;20194;-56
2023/09/04 04:31:10;;;;;;;567.90;140.03;;;;;;;;;;4925534;28;20027;-56
2023/09/04 04:33:35;;;;;;;466.30;138.38;;;;;;;;;;4927281;28;20318;-55
2023/09/04 04:36:03;;;;;;;464.92;138.10;;;;;;;;;;4926424;28;20051;-55
2023/09/04 04:38:28;;;;;;;487.48;135.73;;;;;;;;;;4927935;28;20055;-55
2023/09/04 04:40:55;;;;;;;590.95;143.32;;;;;;;;;;4927010;28;20210;-55
2023/09/04 04:43:20;;;;;;;439.98;137.65;;;;;;;;;;4927305;28;20031;-56
2023/09/04 04:45:45;;;;;;;630.73;152.17;;;;;;;;;;4926716;28;20106;-56
2023/09/04 04:48:11;;;;;;;432.77;137.60;;;;;;;;;;4928556;28;20346;-57
2023/09/04 04:50:36;;;;;;;401.07;138.77;;;;;;;;;;4926504;28;20896;-56
2023/09/04 04:53:01;;;;;;;504.73;147.57;;;;;;;;;;4927805;28;20689;-56
2023/09/04 04:55:26;;;;;;;478.90;146.40;;;;;;;;;;4927591;28;20308;-55
2023/09/04 04:57:53;;;;;;;579.60;152.67;;;;;;;;;;4928087;28;20382;-56
2023/09/04 05:00:18;;;;;;;494.65;143.77;;;;;;;;;;4926818;28;20804;-56
2023/09/04 05:02:43;;;;;;;581.10;138.98;;;;;;;;;;4928286;28;20093;-55
2023/09/04 05:05:10;;;;;;;451.90;136.55;;;;;;;;;;4927450;28;20243;-56
2023/09/04 05:07:35;;;;;;;495.65;148.80;;;;;;;;;;4927555;28;20054;-57
2023/09/04 05:10:00;;;;;;;485.00;147.93;;;;;;;;;;4927017;28;20111;-57
2023/09/04 05:12:25;;;;;;;493.17;149.57;;;;;;;;;;4929097;28;20374;-55
2023/09/04 05:14:51;;;;;;;645.63;159.48;;;;;;;;;;4924310;28;20299;-55
2023/09/04 05:17:16;;;;;;;462.03;143.30;;;;;;;;;;4929252;28;20032;-55
2023/09/04 05:19:41;;;;;;;507.23;123.53;;;;;;;;;;4926097;28;20357;-55
2023/09/04 05:22:06;;;;;;;434.53;122.30;;;;;;;;;;4925914;28;20409;-57
2023/09/04 05:24:32;;;;;;;484.23;140.60;;;;;;;;;;4925868;28;20263;-57
2023/09/04 05:26:57;;;;;;;521.58;158.02;;;;;;;;;;4923937;28;20039;-56
2023/09/04 05:29:23;;;;;;;468.58;143.55;;;;;;;;;;4926929;28;21128;-57
2023/09/04 05:31:51;;;;;;;619.35;143.10;;;;;;;;;;4924669;28;20028;-56
2023/09/04 05:34:17;;;;;;;445.80;134.52;;;;;;;;;;4926069;28;20024;-58
2023/09/04 05:36:42;;;;;;;548.85;139.63;;;;;;;;;;4924999;28;20038;-56
2023/09/04 05:39:08;;;;;;;491.00;137.93;;;;;;;;;;4925922;28;20035;-57
2023/09/04 05:41:34;;;;;;;455.10;128.88;;;;;;;;;;4926750;28;20340;-57
2023/09/04 05:43:59;;;;;;;451.85;123.43;;;;;;;;;;4925393;28;20331;-56
2023/09/04 05:46:24;;;;;;;476.70;122.32;;;;;;;;;;4927005;28;20512;-57
2023/09/04 05:48:49;;;;;;;541.60;123.57;;;;;;;;;;4924004;28;20146;-56
2023/09/04 05:51:15;;;;;;;430.53;113.80;;;;;;;;;;4927243;28;20275;-56
2023/09/04 05:53:40;;;;;;;486.33;120.57;;;;;;;;;;4925189;28;20557;-55
2023/09/04 05:56:06;;;;;;;433.63;118.73;;;;;;;;;;4924942;28;20761;-56
2023/09/04 05:58:32;;;;;;;432.25;116.18;;;;;;;;;;4924805;28;20283;-56
2023/09/04 06:00:57;;;;;;;565.45;129.75;;;;;;;;;;4924632;28;20472;-56
2023/09/04 06:03:23;;;;;;;448.87;129.47;;;;;;;;;;4924984;28;20043;-58
2023/09/04 06:05:48;;;;;;;581.47;130.18;;;;;;;;;;4922879;28;20440;-56
2023/09/04 06:08:15;;;;;;;499.85;127.15;;;;;;;;;;4928712;28;20027;-57
2023/09/04 06:10:40;;;;;;;485.65;169.85;;;;;;;;;;4925317;28;20687;-56
2023/09/04 06:13:06;;;;;;;446.67;123.37;;;;;;;;;;4925642;28;20024;-58
2023/09/04 06:15:31;;;;;;;525.67;131.65;;;;;;;;;;4923610;28;20275;-55
2023/09/04 06:17:56;;;;;;;597.13;136.17;;;;;;;;;;4925445;28;20019;-55
2023/09/04 06:20:21;;;;;;;476.00;129.53;;;;;;;;;;4923774;28;20023;-56
2023/09/04 06:22:46;;;;;;;634.53;139.83;;;;;;;;;;4926781;28;20275;-55
2023/09/04 06:25:12;;;;;;;497.67;181.10;;;;;;;;;;4925068;28;20285;-56
2023/09/04 06:27:37;;;;;;;482.73;129.73;;;;;;;;;;4925584;28;20030;-57
2023/09/04 06:30:05;;;;;;;542.00;132.48;;;;;;;;;;4925581;28;20338;-56
2023/09/04 06:32:30;;;;;;;535.60;173.18;;;;;;;;;;4923905;28;20110;-56
2023/09/04 06:34:56;;;;;;;644.80;205.68;;;;;;;;;;4924320;28;20024;-56
2023/09/04 06:37:21;;;;;;;509.90;129.47;;;;;;;;;;4924217;28;20067;-58
2023/09/04 06:39:46;;;;;;;472.57;103.27;;;;;;;;;;4925211;28;20074;-59
2023/09/04 06:42:11;;;;;;;398.63;97.97;;;;;;;;;;4923505;28;20554;-56
2023/09/04 06:44:36;;;;;;;425.63;103.90;;;;;;;;;;4923922;28;20271;-58
2023/09/04 06:47:02;;;;;;;453.53;106.83;;;;;;;;;;4924087;28;20043;-58
2023/09/04 06:49:27;;;;;;;415.90;105.83;;;;;;;;;;4925999;28;20295;-58
2023/09/04 06:51:52;;;;;;;649.30;268.37;;;;;;;;;;4924818;28;20267;-58
2023/09/04 06:54:17;;;;;;;460.23;138.30;;;;;;;;;;4926186;28;20263;-56
2023/09/04 06:56:43;;;;;;;536.03;327.63;;;;;;;;;;4925155;28;20024;-56
2023/09/04 06:59:08;;;;;;;440.33;119.33;;;;;;;;;;4925888;28;20055;-56
2023/09/04 07:01:34;;;;;;;655.57;393.57;;;;;;;;;;4923321;28;20537;-57
2023/09/04 07:03:59;;;;;;;554.70;320.35;;;;;;;;;;4933354;28;20482;-57
2023/09/04 07:06:24;;;;;;;578.75;350.35;;;;;;;;;;4920771;28;20048;-57
2023/09/04 07:08:50;;;;;;;472.57;205.83;;;;;;;;;;4932270;28;20070;-57
2023/09/04 07:11:16;;;;;;;483.52;291.52;;;;;;;;;;4932313;28;20274;-58
2023/09/04 07:13:41;;;;;;;503.55;293.10;;;;;;;;;;4933128;28;20130;-58
2023/09/04 07:16:06;;;;;;;426.00;200.37;;;;;;;;;;4932657;28;20047;-59
2023/09/04 07:18:32;;;;;;;522.87;305.77;;;;;;;;;;4933216;28;20033;-56
2023/09/04 07:20:57;;;;;;;662.28;367.35;;;;;;;;;;4930632;28;20271;-56
2023/09/04 07:23:22;;;;;;;558.87;321.47;;;;;;;;;;4932472;28;20023;-57
2023/09/04 07:25:48;;;;;;;538.50;342.83;;;;;;;;;;4937043;28;20669;-57
2023/09/04 07:28:13;;;;;;;459.88;267.40;;;;;;;;;;4935438;28;20035;-58
2023/09/04 07:30:38;;;;;;;564.50;302.70;;;;;;;;;;4931488;28;20561;-56
2023/09/04 07:33:04;;;;;;;397.67;238.90;;;;;;;;;;4931035;28;20079;-57
2023/09/04 07:35:29;;;;;;;429.17;305.37;;;;;;;;;;4930895;28;20076;-57
2023/09/04 07:37:54;;;;;;;571.00;377.83;;;;;;;;;;4931585;28;20079;-56
2023/09/04 07:40:19;;;;;;;408.70;289.03;;;;;;;;;;4932102;28;20281;-56
2023/09/04 07:42:46;;;;;;;465.87;331.90;;;;;;;;;;4933399;28;20266;-59
2023/09/04 07:45:11;;;;;;;435.92;248.18;;;;;;;;;;4931671;28;20067;-57
2023/09/04 07:47:36;;;;;;;431.42;261.42;;;;;;;;;;4933269;28;20049;-56
2023/09/04 07:50:03;;;;;;;678.73;390.47;;;;;;;;;;4933084;28;20121;-59
2023/09/04 07:52:28;;;;;;;510.65;315.95;;;;;;;;;;4933146;28;20429;-57
2023/09/04 07:54:53;;;;;;;629.08;403.70;;;;;;;;;;4931178;28;20532;-57
2023/09/04 07:57:19;;;;;;;402.88;337.20;;;;;;;;;;4931688;28;20030;-56
2023/09/04 07:59:44;;;;;;;358.42;128.52;;;;;;;;;;4932540;28;20027;-57
2023/09/04 08:02:09;;;;;;;373.58;317.95;;;;;;;;;;4929536;28;20448;-59
2023/09/04 08:04:34;;;;;;;447.47;338.17;;;;;;;;;;4932417;28;20149;-58
2023/09/04 08:07:00;;;;;;;524.27;267.23;;;;;;;;;;4930243;28;20071;-56
2023/09/04 08:09:25;;;;;;;471.80;317.07;;;;;;;;;;4931193;28;20414;-57
2023/09/04 08:11:50;;;;;;;491.40;323.10;;;;;;;;;;4930346;28;20281;-57
2023/09/04 08:14:15;;;;;;;488.63;356.57;;;;;;;;;;4930419;28;20419;-56
2023/09/04 08:16:41;;;;;;;340.63;175.87;;;;;;;;;;4930914;28;20103;-59
2023/09/04 08:19:06;;;;;;;488.63;340.27;;;;;;;;;;4930857;28;20545;-57
2023/09/04 08:21:31;;;;;;;510.10;346.57;;;;;;;;;;4932258;28;20287;-56
2023/09/04 08:23:57;;;;;;;568.70;335.77;;;;;;;;;;4931139;28;20429;-57
2023/09/04 08:26:22;;;;;;;488.05;392.88;;;;;;;;;;4934981;28;20062;-57
2023/09/04 08:28:47;;;;;;;466.13;314.10;;;;;;;;;;4932165;28;20027;-57
2023/09/04 08:31:13;;;;;;;535.88;329.80;;;;;;;;;;4930811;28;20210;-57
2023/09/04 08:33:38;;;;;;;464.27;316.83;;;;;;;;;;4931007;28;20019;-58
2023/09/04 08:36:03;;;;;;;654.47;384.93;;;;;;;;;;4937633;28;20347;-58
2023/09/04 08:38:28;;;;;;;470.37;313.07;;;;;;;;;;4932172;28;20126;-57
2023/09/04 08:40:55;;;;;;;602.50;364.60;;;;;;;;;;4930019;28;20267;-58
2023/09/04 08:43:21;;;;;;;482.20;282.02;;;;;;;;;;4931865;28;20031;-56
2023/09/04 08:45:47;;;;;;;427.25;246.18;;;;;;;;;;4930229;28;20047;-57
2023/09/04 08:48:13;;;;;;;459.27;269.02;;;;;;;;;;4932914;28;20057;-56
2023/09/04 08:50:38;;;;;;;487.67;315.35;;;;;;;;;;4930914;28;20115;-57
2023/09/04 08:53:04;;;;;;;581.42;376.40;;;;;;;;;;4932418;28;20529;-56
2023/09/04 08:55:30;;;;;;;491.80;285.02;;;;;;;;;;4929739;28;20031;-57
2023/09/04 08:57:55;;;;;;;590.65;295.13;;;;;;;;;;4931682;28;20035;-57
2023/09/04 09:00:20;;;;;;;485.35;322.17;;;;;;;;;;4929317;28;20110;-58
2023/09/04 09:02:46;;;;;;;548.07;401.83;;;;;;;;;;4931700;28;20019;-57
2023/09/04 09:05:13;;;;;;;594.33;323.75;;;;;;;;;;4928620;28;20457;-56
2023/09/04 09:07:39;;;;;;;468.70;341.02;;;;;;;;;;4932503;28;20019;-58
2023/09/04 09:10:06;;;;;;;641.08;372.25;;;;;;;;;;4929532;28;20078;-58
2023/09/04 09:12:31;;;;;;;618.05;403.33;;;;;;;;;;4929553;28;20074;-58
2023/09/04 09:14:59;;;;;;;629.03;342.20;;;;;;;;;;4930093;28;20023;-60
2023/09/04 09:17:25;;;;;;;427.65;242.55;;;;;;;;;;4930448;28;20268;-57
2023/09/04 09:19:50;;;;;;;588.45;332.65;;;;;;;;;;4932781;28;20026;-57
2023/09/04 09:22:17;;;;;;;481.00;327.85;;;;;;;;;;4927897;28;20090;-57
2023/09/04 09:24:48;;;;;;;466.45;277.25;;;;;;;;;;4928232;28;20050;-56
2023/09/04 09:27:13;;;;;;;;;;;;;;;;;;4929415;28;20045;-61
2023/09/04 09:29:39;;;;;;;519.67;325.02;;;;;;;;;;4930633;28;19918;-57
2023/09/04 09:32:04;;;;;;;650.97;382.70;;;;;;;;;;4928801;28;20046;-57
2023/09/04 09:34:33;;;;;;;665.67;426.25;;;;;;;;;;4930662;28;20028;-57
2023/09/04 09:36:58;;;;;;;701.70;408.40;;;;;;;;;;4930131;28;20634;-57
2023/09/04 09:39:25;;;;;;;500.42;309.42;;;;;;;;;;4929176;28;20035;-57
2023/09/04 09:41:50;;;;;;;545.30;335.05;;;;;;;;;;4930946;28;20099;-57
2023/09/04 09:44:15;;;;;;;549.03;376.90;;;;;;;;;;4928137;28;20203;-58
2023/09/04 09:46:41;;;;;;;505.80;381.40;;;;;;;;;;4929826;28;20038;-57
2023/09/04 09:49:07;;;;;;;761.88;463.25;;;;;;;;;;4929513;28;20630;-57
2023/09/04 09:51:32;;;;;;;625.55;274.23;;;;;;;;;;4929368;28;20122;-58
2023/09/04 09:53:57;;;;;;;596.87;279.90;;;;;;;;;;4929581;28;20027;-56
2023/09/04 09:56:23;;;;;;;525.20;336.63;;;;;;;;;;4929211;28;20272;-57
2023/09/04 09:58:49;;;;;;;786.70;361.92;;;;;;;;;;4932912;28;20031;-59
2023/09/04 10:01:15;;;;;;;517.17;446.45;;;;;;;;;;4928540;28;20107;-58
2023/09/04 10:03:40;;;;;;;510.63;359.25;;;;;;;;;;4931189;28;20037;-57
2023/09/04 10:06:06;;;;;;;645.47;377.85;;;;;;;;;;4927380;28;20046;-57
2023/09/04 10:08:47;;;;;;;557.40;404.60;;;;;;;;;;4932830;28;20039;-59
2023/09/04 10:11:13;;;;;;;500.02;300.38;;;;;;;;;;4928512;28;20042;-59
2023/09/04 10:14:02;;;;;;;455.80;278.33;;;;;;;;;;4930372;28;20421;-58
2023/09/04 10:16:35;;;;;;;524.83;345.30;;;;;;;;;;4924920;28;20085;-56
2023/09/04 10:19:02;;;;;;;612.55;290.77;;;;;;;;;;4929501;28;20062;-57
2023/09/04 10:21:34;;;;;;;501.05;335.98;;;;;;;;;;4926575;28;20482;-57
2023/09/04 10:24:01;;;;;;;533.25;290.45;;;;;;;;;;4929477;28;20689;-58
2023/09/04 10:26:35;;;;;;;591.95;378.05;;;;;;;;;;4926544;28;20031;-58
2023/09/04 10:29:06;;;;;;;681.15;407.35;;;;;;;;;;4927067;28;20066;-59
2023/09/04 10:31:34;;;;;;;508.67;379.60;;;;;;;;;;4927018;28;20607;-58
2023/09/04 10:34:00;;;;;;;561.35;247.70;;;;;;;;;;4935567;28;20035;-58
2023/09/04 10:36:27;;;;;;;540.13;397.38;;;;;;;;;;4928263;28;20087;-56
2023/09/04 10:38:53;;;;;;;589.78;421.30;;;;;;;;;;4929639;28;20244;-56
2023/09/04 10:41:18;;;;;;;513.85;333.77;;;;;;;;;;4925745;28;20106;-56
2023/09/04 10:43:44;;;;;;;539.72;371.52;;;;;;;;;;4930160;28;20482;-56
2023/09/04 10:46:12;;;;;;;500.27;291.63;;;;;;;;;;4929197;28;20083;-58
2023/09/04 10:48:47;;;;;;;597.72;379.67;;;;;;;;;;4931557;28;20038;-57
2023/09/04 10:51:25;;;;;;;613.53;286.83;;;;;;;;;;4930382;28;20055;-58
2023/09/04 10:53:50;;;;;;;560.75;348.48;;;;;;;;;;4932886;28;20019;-57
2023/09/04 10:56:15;;;;;;;472.23;295.10;;;;;;;;;;4928006;28;20046;-59
2023/09/04 10:59:00;;;;;;;589.33;337.90;;;;;;;;;;4931387;28;20039;-57
2023/09/04 11:01:33;;;;;;;544.03;324.13;;;;;;;;;;4929634;28;20279;-57
2023/09/04 11:04:00;;;;;;;533.95;346.90;;;;;;;;;;4930023;28;20040;-57
2023/09/04 11:06:25;;;;;;;608.72;407.08;;;;;;;;;;4931045;28;20031;-56
2023/09/04 11:08:51;;;;;;;529.80;367.97;;;;;;;;;;4930149;28;20034;-58
2023/09/04 11:11:19;;;;;;;479.25;280.52;;;;;;;;;;4926923;28;20856;-56
2023/09/04 11:13:45;;;;;;;578.20;328.75;;;;;;;;;;4930657;28;20020;-58
2023/09/04 11:16:10;;;;;;;546.88;285.63;;;;;;;;;;4926299;28;20054;-58
2023/09/04 11:18:37;;;;;;;430.47;269.53;;;;;;;;;;4930517;28;20096;-57
2023/09/04 11:21:05;;;;;;;545.00;274.00;;;;;;;;;;4927077;28;20039;-58
2023/09/04 11:23:33;;;;;;;490.52;296.83;;;;;;;;;;4928115;28;20493;-56
2023/09/04 11:25:59;;;;;;;550.35;353.05;;;;;;;;;;4926584;28;20552;-57
2023/09/04 11:28:27;;;;;;;517.05;376.73;;;;;;;;;;4928887;28;20027;-57
2023/09/04 11:30:53;;;;;;;420.17;137.38;;;;;;;;;;4926951;28;20413;-56
2023/09/04 11:33:20;;;;;;;546.88;315.00;;;;;;;;;;4926880;28;20027;-56
2023/09/04 11:35:45;;;;;;;509.45;337.10;;;;;;;;;;4928539;28;20128;-56
2023/09/04 11:38:24;;;;;;;587.65;300.27;;;;;;;;;;4929515;28;20307;-58
2023/09/04 11:40:49;;;;;;;521.97;346.98;;;;;;;;;;4927754;28;20032;-55
2023/09/04 11:43:15;;;;;;;612.30;279.23;;;;;;;;;;4928588;28;20086;-56
2023/09/04 11:45:40;;;;;;;511.15;322.92;;;;;;;;;;4926644;28;20088;-58
2023/09/04 11:48:06;;;;;;;618.55;280.48;;;;;;;;;;4927071;28;20441;-55
2023/09/04 11:50:31;;;;;;;536.22;363.02;;;;;;;;;;4933113;28;20035;-55
2023/09/04 11:52:57;;;;;;;474.73;294.43;;;;;;;;;;4930776;28;20333;-55
2023/09/04 11:55:24;;;;;;;500.20;273.08;;;;;;;;;;4930560;28;20338;-56
2023/09/04 11:57:49;;;;;;;489.55;326.92;;;;;;;;;;4931603;28;20588;-58
2023/09/04 12:00:15;;;;;;;675.33;294.23;;;;;;;;;;4928452;28;20027;-58
2023/09/04 12:02:42;;;;;;;612.38;405.83;;;;;;;;;;4929406;28;20267;-56
2023/09/04 12:05:07;;;;;;;667.53;358.05;;;;;;;;;;4930488;28;20019;-57
2023/09/04 12:07:33;;;;;;;543.45;353.23;;;;;;;;;;4930945;28;20025;-57
2023/09/04 12:09:59;;;;;;;668.67;390.50;;;;;;;;;;4930373;28;20027;-56
2023/09/04 12:12:26;;;;;;;602.97;416.45;;;;;;;;;;4932184;28;20051;-57
2023/09/04 12:14:51;;;;;;;572.50;387.63;;;;;;;;;;4932767;28;20043;-57
2023/09/04 12:17:17;;;;;;;730.97;362.57;;;;;;;;;;4931601;28;20279;-56
2023/09/04 12:19:42;;;;;;;621.15;426.67;;;;;;;;;;4930660;28;20031;-55
2023/09/04 12:22:12;;;;;;;711.93;350.23;;;;;;;;;;4931094;28;20902;-57
2023/09/04 12:24:37;;;;;;;588.55;328.73;;;;;;;;;;4931708;28;20038;-55
2023/09/04 12:27:03;;;;;;;469.80;190.45;;;;;;;;;;4929469;28;20409;-55
2023/09/04 12:29:29;;;;;;;576.67;325.27;;;;;;;;;;4931873;28;20062;-55
2023/09/04 12:31:54;;;;;;;586.55;304.48;;;;;;;;;;4930961;28;20111;-56
2023/09/04 12:34:23;;;;;;;734.67;381.47;;;;;;;;;;4931886;28;20301;-56
2023/09/04 12:36:53;;;;;;;588.28;352.23;;;;;;;;;;4932120;28;20263;-56
2023/09/04 12:39:18;;;;;;;706.50;370.50;;;;;;;;;;4931536;28;20462;-56
2023/09/04 12:41:43;;;;;;;702.17;465.53;;;;;;;;;;4930673;28;20616;-56
2023/09/04 12:44:08;;;;;;;787.10;430.25;;;;;;;;;;4931705;28;20465;-58
2023/09/04 12:46:34;;;;;;;632.57;386.33;;;;;;;;;;4929752;28;20031;-56
2023/09/04 12:48:59;;;;;;;598.60;401.93;;;;;;;;;;4931749;28;20279;-56
2023/09/04 12:51:25;;;;;;;564.53;361.13;;;;;;;;;;4930355;28;20678;-55
2023/09/04 12:53:50;;;;;;;597.95;423.25;;;;;;;;;;4929502;28;20020;-55
2023/09/04 12:56:15;;;;;;;769.00;474.77;;;;;;;;;;4930507;28;20036;-56
2023/09/04 12:58:40;;;;;;;531.57;255.73;;;;;;;;;;4931784;28;20705;-56
2023/09/04 13:01:06;;;;;;;503.57;155.23;;;;;;;;;;4929099;28;20302;-56
2023/09/04 13:03:32;;;;;;;615.17;373.00;;;;;;;;;;4931894;28;20027;-56
2023/09/04 13:05:57;;;;;;;594.70;411.50;;;;;;;;;;4931267;28;20044;-58
2023/09/04 13:08:22;;;;;;;593.47;372.60;;;;;;;;;;4930759;28;20418;-57
2023/09/04 13:10:47;;;;;;;645.92;435.88;;;;;;;;;;4932124;28;20031;-56
2023/09/04 13:13:13;;;;;;;874.83;479.27;;;;;;;;;;4930609;28;20028;-57
2023/09/04 13:15:38;;;;;;;671.07;459.70;;;;;;;;;;4929737;28;20402;-55
2023/09/04 13:18:03;;;;;;;601.60;318.17;;;;;;;;;;4931631;28;20019;-57
2023/09/04 13:20:29;;;;;;;580.13;405.30;;;;;;;;;;4928334;28;20790;-56
2023/09/04 13:22:54;;;;;;;691.53;432.20;;;;;;;;;;4930040;28;20016;-57
2023/09/04 13:25:19;;;;;;;759.67;403.13;;;;;;;;;;4929152;28;20275;-55
2023/09/04 13:27:44;;;;;;;717.83;520.77;;;;;;;;;;4929350;28;20908;-57
2023/09/04 13:30:10;;;;;;;746.60;329.20;;;;;;;;;;4927792;28;20318;-57
2023/09/04 13:32:35;;;;;;;571.88;360.48;;;;;;;;;;4929591;28;20027;-56
2023/09/04 13:35:03;;;;;;;582.78;244.57;;;;;;;;;;4930287;28;20497;-56
2023/09/04 13:37:29;;;;;;;680.53;457.77;;;;;;;;;;4929448;28;20074;-57
2023/09/04 13:39:54;;;;;;;693.00;476.48;;;;;;;;;;4930814;28;20473;-56
2023/09/04 13:42:20;;;;;;;611.63;252.27;;;;;;;;;;4928284;28;20095;-56
2023/09/04 13:44:45;;;;;;;591.42;391.67;;;;;;;;;;4930042;28;20462;-56
2023/09/04 13:47:10;;;;;;;843.60;482.25;;;;;;;;;;4927779;28;20075;-58